Time;durP1;ratioP1;P1;durP2;ratioP2;P2;SDS_P1;SDS_P2;PMS_P1;PMS_P2;Temp;Humidity;BMP_temperature;BMP_pressure;BME280_temperature;BME280_humidity;BME280_pressure;Samples;Min_cycle;Max_cycle;Signal;HPM_P1;HPM_P2
2022/01/20 00:00:33;;;;;;;;;;;;;;;;;;5075264;28;1315;-73
2022/01/20 00:03:01;;;;;;;;;;;;;;;;;;5093018;28;840;-73
2022/01/20 00:27:30;;;;;;;;;;;;;;;;;;5094307;28;735;-73
2022/01/20 00:32:57;;;;;;;;;;;;;;;;;;5092909;28;939;-73
2022/01/20 00:35:20;;;;;;;;;;;;;;;;;;5093042;28;1084;-73
2022/01/20 00:37:46;;;;;;;;;;;;;;;;;;5075033;28;1250;-73
2022/01/20 00:40:11;;;;;;;;;;;;;;;;;;5093136;28;865;-73
2022/01/20 00:42:37;;;;;;;;;;;;;;;;;;5074636;28;881;-73
2022/01/20 00:45:02;;;;;;;;;;;;;;;;;;5058323;28;1238;-72
2022/01/20 00:47:28;;;;;;;;;;;;;;;;;;5092018;28;935;-73
2022/01/20 00:49:54;;;;;;;;;;;;;;;;;;5073298;28;1975;-72
2022/01/20 00:52:19;;;;;;;;;;;;;;;;;;5092652;28;848;-73
2022/01/20 00:54:44;;;;;;;;;;;;;;;;;;5092552;28;797;-73
2022/01/20 00:57:10;;;;;;;;;;;;;;;;;;5073922;28;1121;-73
2022/01/20 00:59:35;;;;;;;;;;;;;;;;;;5090866;28;915;-73
2022/01/20 01:02:01;;;;;;;;;;;;;;;;;;5074637;28;872;-72
2022/01/20 01:04:27;;;;;;;;;;;;;;;;;;5073142;28;1176;-72
2022/01/20 01:09:39;;;;;;;;;;;;;;;;;;5076398;28;1972;-72
2022/01/20 01:12:08;;;;;;;;;;;;;;;;;;5074159;28;1295;-72
2022/01/20 01:14:34;;;;;;;;;;;;;;;;;;5073366;28;1411;-72
2022/01/20 01:24:36;;;;;;;;;;;;;;;;;;5091265;28;1009;-73
2022/01/20 01:27:02;;;;;;;;;;;;;;;;;;5091917;28;766;-72
2022/01/20 01:32:14;;;;;;;;;;;;;;;;;;5091902;28;691;-72
2022/01/20 01:34:46;;;;;;;;;;;;;;;;;;5073203;28;1284;-72
2022/01/20 01:37:35;;;;;;;;;;;;;;;;;;5058340;28;1314;-72
2022/01/20 01:39:57;;;;;;;;;;;;;;;;;;5076191;28;1003;-73
2022/01/20 01:42:29;;;;;;;;;;;;;;;;;;5073216;28;886;-73
2022/01/20 01:44:55;;;;;;;;;;;;;;;;;;5092147;28;880;-73
2022/01/20 01:47:20;;;;;;;;;;;;;;;;;;5091265;28;865;-73
2022/01/20 01:49:45;;;;;;;;;;;;;;;;;;5091242;28;1915;-73
2022/01/20 01:52:10;;;;;;;;;;;;;;;;;;5056109;28;1152;-72
2022/01/20 01:54:36;;;;;;;;;;;;;;;;;;5073979;28;841;-73
2022/01/20 01:57:05;;;;;;;;;;;;;;;;;;5072852;28;1015;-73
2022/01/20 01:59:31;;;;;;;;;;;;;;;;;;5091592;28;798;-72
2022/01/20 02:01:57;;;;;;;;;;;;;;;;;;5073780;28;1246;-72
2022/01/20 02:04:22;;;;;;;;;;;;;;;;;;5055428;28;1316;-73
2022/01/20 02:20:14;;;;;;;;;;;;;;;;;;5093301;28;1168;-72
2022/01/20 02:22:40;;;;;;;;;;;;;;;;;;5093648;28;1110;-72
2022/01/20 02:25:16;;;;;;;;;;;;;;;;;;5074678;28;1467;-72
2022/01/20 02:27:41;;;;;;;;;;;;;;;;;;5074713;28;1303;-72
2022/01/20 02:30:07;;;;;;;;;;;;;;;;;;5095123;28;1914;-73
2022/01/20 02:32:32;;;;;;;;;;;;;;;;;;5076471;28;1011;-72
2022/01/20 02:34:57;;;;;;;;;;;;;;;;;;5094830;28;821;-72
2022/01/20 02:37:23;;;;;;;;;;;;;;;;;;5094834;28;876;-72
2022/01/20 02:45:33;;;;;;;;;;;;;;;;;;5020458;28;1183;-72
2022/01/20 02:47:58;;;;;;;;;;;;;;;;;;5081463;28;1096;-72
2022/01/20 02:50:24;;;;;;;;;;;;;;;;;;5094366;28;1961;-72
2022/01/20 02:52:49;;;;;;;;;;;;;;;;;;5095371;28;983;-72
2022/01/20 02:55:14;;;;;;;;;;;;;;;;;;5076943;28;1171;-72
2022/01/20 02:57:40;;;;;;;;;;;;;;;;;;5094682;28;857;-72
2022/01/20 03:00:06;;;;;;;;;;;;;;;;;;5076230;28;824;-72
2022/01/20 03:02:31;;;;;;;;;;;;;;;;;;5058799;28;1228;-72
2022/01/20 03:04:57;;;;;;;;;;;;;;;;;;5076208;28;1281;-72
2022/01/20 03:07:22;;;;;;;;;;;;;;;;;;5075933;28;904;-72
2022/01/20 03:09:47;;;;;;;;;;;;;;;;;;5075895;28;1908;-73
2022/01/20 03:12:12;;;;;;;;;;;;;;;;;;5094342;28;916;-72
2022/01/20 03:14:38;;;;;;;;;;;;;;;;;;5094098;28;951;-72
2022/01/20 03:17:04;;;;;;;;;;;;;;;;;;5094045;28;900;-72
2022/01/20 03:19:29;;;;;;;;;;;;;;;;;;5093372;28;1143;-72
2022/01/20 03:21:54;;;;;;;;;;;;;;;;;;5075494;28;1251;-72
2022/01/20 03:24:19;;;;;;;;;;;;;;;;;;5058707;28;1593;-72
2022/01/20 03:26:45;;;;;;;;;;;;;;;;;;5076366;28;825;-72
2022/01/20 03:29:10;;;;;;;;;;;;;;;;;;5075203;28;1198;-72
2022/01/20 03:31:35;;;;;;;;;;;;;;;;;;5059015;28;1969;-72
2022/01/20 03:34:01;;;;;;;;;;;;;;;;;;5075672;28;840;-73
2022/01/20 03:36:26;;;;;;;;;;;;;;;;;;5093630;28;936;-72
2022/01/20 03:38:52;;;;;;;;;;;;;;;;;;5076885;28;903;-72
2022/01/20 03:41:17;;;;;;;;;;;;;;;;;;5094106;28;869;-72
2022/01/20 03:43:43;;;;;;;;;;;;;;;;;;5094187;28;912;-72
2022/01/20 03:46:12;;;;;;;;;;;;;;;;;;5094273;28;916;-72
2022/01/20 03:48:48;;;;;;;;;;;;;;;;;;5076420;28;1313;-74
2022/01/20 03:51:14;;;;;;;;;;;;;;;;;;5060352;28;1958;-72
2022/01/20 03:53:39;;;;;;;;;;;;;;;;;;5093730;28;920;-72
2022/01/20 03:56:04;;;;;;;;;;;;;;;;;;5059532;28;1860;-72
2022/01/20 03:58:30;;;;;;;;;;;;;;;;;;5093389;28;1042;-72
2022/01/20 04:00:55;;;;;;;;;;;;;;;;;;5093873;28;953;-74
2022/01/20 04:03:21;;;;;;;;;;;;;;;;;;5093364;28;1065;-73
2022/01/20 04:05:56;;;;;;;;;;;;;;;;;;5075886;28;1195;-73
2022/01/20 04:08:31;;;;;;;;;;;;;;;;;;5093016;28;1029;-72
2022/01/20 04:10:56;;;;;;;;;;;;;;;;;;5094020;28;1964;-72
2022/01/20 04:13:22;;;;;;;;;;;;;;;;;;5093594;28;880;-72
2022/01/20 04:15:48;;;;;;;;;;;;;;;;;;5075149;28;1173;-72
2022/01/20 04:18:20;;;;;;;;;;;;;;;;;;5093567;28;868;-73
2022/01/20 04:20:45;;;;;;;;;;;;;;;;;;5071261;28;1160;-74
2022/01/20 04:23:10;;;;;;;;;;;;;;;;;;5055579;28;1163;-74
2022/01/20 04:25:36;;;;;;;;;;;;;;;;;;5072928;28;930;-73
2022/01/20 04:28:01;;;;;;;;;;;;;;;;;;5072517;28;927;-72
2022/01/20 04:30:28;;;;;;;;;;;;;;;;;;5054410;28;1906;-71
2022/01/20 04:32:54;;;;;;;;;;;;;;;;;;5072133;28;912;-74
2022/01/20 04:35:20;;;;;;;;;;;;;;;;;;5054016;28;1168;-72
2022/01/20 04:37:47;;;;;;;;;;;;;;;;;;5055144;28;1315;-72
2022/01/20 04:40:13;;;;;;;;;;;;;;;;;;5071524;28;832;-72
2022/01/20 04:42:39;;;;;;;;;;;;;;;;;;5071065;28;1309;-72
2022/01/20 04:45:09;;;;;;;;;;;;;;;;;;5054734;28;1366;-72
2022/01/20 04:58:17;;;;;;;;;;;;;;;;;;5071741;28;718;-73
2022/01/20 05:00:42;;;;;;;;;;;;;;;;;;5072343;28;840;-73
2022/01/20 05:03:07;;;;;;;;;;;;;;;;;;5070542;28;938;-72
2022/01/20 05:05:33;;;;;;;;;;;;;;;;;;5070498;28;1188;-72
2022/01/20 05:07:59;;;;;;;;;;;;;;;;;;5071113;28;1284;-74
2022/01/20 05:10:24;;;;;;;;;;;;;;;;;;5072054;28;1902;-74
2022/01/20 05:15:15;;;;;;;;;;;;;;;;;;5071079;28;911;-74
2022/01/20 05:17:40;;;;;;;;;;;;;;;;;;5072056;28;1165;-74
2022/01/20 05:20:05;;;;;;;;;;;;;;;;;;5081634;28;1065;-74
2022/01/20 05:22:31;;;;;;;;;;;;;;;;;;5057069;28;1184;-74
2022/01/20 05:24:56;;;;;;;;;;;;;;;;;;5074526;28;1313;-74
2022/01/20 05:27:21;;;;;;;;;;;;;;;;;;5092377;28;872;-74
2022/01/20 05:29:46;;;;;;;;;;;;;;;;;;5074088;28;1902;-73
2022/01/20 05:32:12;;;;;;;;;;;;;;;;;;5093035;28;821;-74
2022/01/20 05:34:37;;;;;;;;;;;;;;;;;;5074647;28;876;-74
2022/01/20 05:37:03;;;;;;;;;;;;;;;;;;5074509;28;1252;-74
2022/01/20 05:39:30;;;;;;;;;;;;;;;;;;5092375;28;889;-74
2022/01/20 05:41:55;;;;;;;;;;;;;;;;;;5093103;28;920;-74
2022/01/20 05:44:21;;;;;;;;;;;;;;;;;;5057364;28;1250;-76
2022/01/20 05:46:49;;;;;;;;;;;;;;;;;;5085152;28;1006;-73
2022/01/20 05:49:20;;;;;;;;;;;;;;;;;;5095966;28;1195;-74
2022/01/20 05:51:46;;;;;;;;;;;;;;;;;;5097048;28;1946;-75
2022/01/20 05:54:12;;;;;;;;;;;;;;;;;;5095028;28;936;-74
2022/01/20 05:56:37;;;;;;;;;;;;;;;;;;5074285;28;1109;-74
2022/01/20 05:59:03;;;;;;;;;;;;;;;;;;5076977;28;821;-74
2022/01/20 06:01:29;;;;;;;;;;;;;;;;;;5094633;28;848;-74
2022/01/20 06:03:55;;;;;;;;;;;;;;;;;;5094423;28;896;-74
2022/01/20 06:06:21;;;;;;;;;;;;;;;;;;5094520;28;887;-74
2022/01/20 06:08:47;;;;;;;;;;;;;;;;;;5094798;28;801;-72
2022/01/20 06:11:12;;;;;;;;;;;;;;;;;;5094721;28;1967;-73
2022/01/20 06:13:37;;;;;;;;;;;;;;;;;;5075898;28;1215;-73
2022/01/20 06:16:03;;;;;;;;;;;;;;;;;;5076985;28;893;-73
2022/01/20 06:18:28;;;;;;;;;;;;;;;;;;5076624;28;1199;-73
2022/01/20 06:20:54;;;;;;;;;;;;;;;;;;5078506;28;1126;-73
2022/01/20 06:23:20;;;;;;;;;;;;;;;;;;5057368;28;1363;-73
2022/01/20 06:25:45;;;;;;;;;;;;;;;;;;5070669;28;1160;-72
2022/01/20 06:28:11;;;;;;;;;;;;;;;;;;5091096;28;927;-72
2022/01/20 06:30:36;;;;;;;;;;;;;;;;;;5082578;28;1918;-73
2022/01/20 06:33:02;;;;;;;;;;;;;;;;;;5060143;28;876;-73
2022/01/20 06:35:27;;;;;;;;;;;;;;;;;;5075781;28;860;-72
2022/01/20 06:37:53;;;;;;;;;;;;;;;;;;5055350;28;1284;-72
2022/01/20 06:40:19;;;;;;;;;;;;;;;;;;5036962;28;1070;-73
2022/01/20 06:42:44;;;;;;;;;;;;;;;;;;5053649;28;1230;-72
2022/01/20 06:45:11;;;;;;;;;;;;;;;;;;5053821;28;1197;-72
2022/01/20 06:47:36;;;;;;;;;;;;;;;;;;5070981;28;956;-72
2022/01/20 06:50:01;;;;;;;;;;;;;;;;;;5071679;28;1949;-74
2022/01/20 06:52:28;;;;;;;;;;;;;;;;;;5071872;28;884;-72
2022/01/20 06:54:53;;;;;;;;;;;;;;;;;;5038241;28;1275;-72
2022/01/20 06:57:19;;;;;;;;;;;;;;;;;;5055477;28;1054;-72
2022/01/20 06:59:44;;;;;;;;;;;;;;;;;;5075351;28;811;-72
2022/01/20 07:02:10;;;;;;;;;;;;;;;;;;5076446;28;770;-73
2022/01/20 07:04:36;;;;;;;;;;;;;;;;;;5075148;28;770;-73
2022/01/20 07:07:01;;;;;;;;;;;;;;;;;;5075585;28;868;-72
2022/01/20 07:09:26;;;;;;;;;;;;;;;;;;5057277;28;1338;-72
2022/01/20 07:11:52;;;;;;;;;;;;;;;;;;5075518;28;1898;-72
2022/01/20 07:14:17;;;;;;;;;;;;;;;;;;5074681;28;912;-73
2022/01/20 07:16:42;;;;;;;;;;;;;;;;;;5074881;28;872;-73
2022/01/20 07:19:08;;;;;;;;;;;;;;;;;;5076881;28;1030;-73
2022/01/20 07:21:33;;;;;;;;;;;;;;;;;;5094905;28;809;-73
2022/01/20 07:23:58;;;;;;;;;;;;;;;;;;5094859;28;974;-71
2022/01/20 07:26:23;;;;;;;;;;;;;;;;;;5077086;28;945;-73
2022/01/20 07:28:49;;;;;;;;;;;;;;;;;;5095030;28;1054;-72
2022/01/20 07:31:16;;;;;;;;;;;;;;;;;;5095275;28;1972;-76
2022/01/20 07:33:42;;;;;;;;;;;;;;;;;;5094868;28;963;-76
2022/01/20 07:36:07;;;;;;;;;;;;;;;;;;5076889;28;1284;-76
2022/01/20 07:38:33;;;;;;;;;;;;;;;;;;5094037;28;845;-76
2022/01/20 07:40:58;;;;;;;;;;;;;;;;;;5059380;28;1212;-75
2022/01/20 07:43:24;;;;;;;;;;;;;;;;;;5076613;28;1350;-76
2022/01/20 07:45:49;;;;;;;;;;;;;;;;;;5075942;28;866;-76
2022/01/20 07:48:14;;;;;;;;;;;;;;;;;;5093938;28;861;-76
2022/01/20 07:50:40;;;;;;;;;;;;;;;;;;5093654;28;1901;-73
2022/01/20 07:53:05;;;;;;;;;;;;;;;;;;5075715;28;1194;-73
2022/01/20 07:55:30;;;;;;;;;;;;;;;;;;5074793;28;810;-73
2022/01/20 07:57:56;;;;;;;;;;;;;;;;;;5075417;28;746;-73
2022/01/20 08:00:21;;;;;;;;;;;;;;;;;;5093931;28;971;-73
2022/01/20 08:02:47;;;;;;;;;;;;;;;;;;5075137;28;1284;-73
2022/01/20 08:05:12;;;;;;;;;;;;;;;;;;5057970;28;1219;-73
2022/01/20 08:07:37;;;;;;;;;;;;;;;;;;5074851;28;1111;-73
2022/01/20 08:10:04;;;;;;;;;;;;;;;;;;5075143;28;1953;-73
2022/01/20 08:12:29;;;;;;;;;;;;;;;;;;5074759;28;1247;-73
2022/01/20 08:14:55;;;;;;;;;;;;;;;;;;5074768;28;1277;-73
2022/01/20 08:17:21;;;;;;;;;;;;;;;;;;5093996;28;856;-72
2022/01/20 08:19:46;;;;;;;;;;;;;;;;;;5074877;28;1543;-73
2022/01/20 08:22:12;;;;;;;;;;;;;;;;;;5093346;28;853;-74
2022/01/20 08:24:37;;;;;;;;;;;;;;;;;;5074929;28;1073;-73
2022/01/20 08:27:03;;;;;;;;;;;;;;;;;;5093447;28;984;-74
2022/01/20 08:29:28;;;;;;;;;;;;;;;;;;5076075;28;868;-80
2022/01/20 08:31:54;;;;;;;;;;;;;;;;;;5076427;28;1909;-79
2022/01/20 08:34:19;;;;;;;;;;;;;;;;;;5076273;28;877;-82
2022/01/20 08:36:45;;;;;;;;;;;;;;;;;;5094250;28;821;-82
2022/01/20 08:39:53;;;;;;;;;;;;;;;;;;5093899;28;939;-82
2022/01/20 08:42:00;;;;;;;;;;;;;;;;;;5085194;28;1154;-82
2022/01/20 08:44:26;;;;;;;;;;;;;;;;;;5077342;28;1284;-81
2022/01/20 08:46:52;;;;;;;;;;;;;;;;;;5094575;28;790;-82
2022/01/20 08:49:18;;;;;;;;;;;;;;;;;;5093979;28;825;-81
2022/01/20 08:51:43;;;;;;;;;;;;;;;;;;5075532;28;1918;-81
2022/01/20 08:54:09;;;;;;;;;;;;;;;;;;5076135;28;774;-81
2022/01/20 08:56:34;;;;;;;;;;;;;;;;;;5075553;28;971;-81
2022/01/20 08:59:05;;;;;;;;;;;;;;;;;;5058642;28;1657;-81
2022/01/20 09:01:30;;;;;;;;;;;;;;;;;;5093441;28;845;-82
2022/01/20 09:03:56;;;;;;;;;;;;;;;;;;5075877;28;845;-81
2022/01/20 09:06:21;;;;;;;;;;;;;;;;;;5058169;28;1276;-81
2022/01/20 09:08:47;;;;;;;;;;;;;;;;;;5075755;28;873;-81
2022/01/20 09:11:22;;;;;;;;;;;;;;;;;;5075148;28;1960;-81
2022/01/20 09:16:31;;;;;;;;;;;;;;;;;;5078484;28;786;-80
2022/01/20 09:18:56;;;;;;;;;;;;;;;;;;5076422;28;767;-79
2022/01/20 09:21:23;;;;;;;;;;;;;;;;;;5092988;28;1391;-78
2022/01/20 09:23:49;;;;;;;;;;;;;;;;;;5058568;28;1061;-77
2022/01/20 09:26:14;;;;;;;;;;;;;;;;;;5094379;28;1046;-77
2022/01/20 09:28:40;;;;;;;;;;;;;;;;;;5075175;28;853;-76
2022/01/20 09:31:06;;;;;;;;;;;;;;;;;;5074987;28;1918;-79
2022/01/20 09:33:32;;;;;;;;;;;;;;;;;;5056817;28;1605;-75
2022/01/20 09:35:57;;;;;;;;;;;;;;;;;;5074676;28;771;-75
2022/01/20 09:38:23;;;;;;;;;;;;;;;;;;5092523;28;1406;-76
2022/01/20 09:40:49;;;;;;;;;;;;;;;;;;5074424;28;1198;-76
2022/01/20 09:43:15;;;;;;;;;;;;;;;;;;5092762;28;840;-76
2022/01/20 09:45:41;;;;;;;;;;;;;;;;;;5075198;28;904;-71
2022/01/20 09:48:06;;;;;;;;;;;;;;;;;;5073836;28;1143;-71
2022/01/20 09:50:32;;;;;;;;;;;;;;;;;;5057404;28;1963;-71
2022/01/20 09:52:59;;;;;;;;;;;;;;;;;;5091890;28;943;-72
2022/01/20 09:55:25;;;;;;;;;;;;;;;;;;5092659;28;904;-72
2022/01/20 09:57:50;;;;;;;;;;;;;;;;;;5092403;28;919;-71
2022/01/20 10:00:16;;;;;;;;;;;;;;;;;;5092385;28;782;-71
2022/01/20 10:02:54;;;;;;;;;;;;;;;;;;5073972;28;1249;-71
2022/01/20 10:05:34;;;;;;;;;;;;;;;;;;5074192;28;1274;-73
2022/01/20 10:08:00;;;;;;;;;;;;;;;;;;5073623;28;1378;-73
2022/01/20 10:10:35;;;;;;;;;;;;;;;;;;5073780;28;1961;-73
2022/01/20 10:13:07;;;;;;;;;;;;;;;;;;5092272;28;876;-73
2022/01/20 10:15:32;;;;;;;;;;;;;;;;;;5092576;28;911;-74
2022/01/20 10:18:08;;;;;;;;;;;;;;;;;;5074196;28;1287;-74
2022/01/20 10:20:34;;;;;;;;;;;;;;;;;;5092749;28;1087;-78
2022/01/20 10:22:59;;;;;;;;;;;;;;;;;;5074852;28;1137;-77
2022/01/20 10:25:25;;;;;;;;;;;;;;;;;;5074940;28;1284;-77
2022/01/20 10:27:54;;;;;;;;;;;;;;;;;;5092420;28;848;-77
2022/01/20 10:30:21;;;;;;;;;;;;;;;;;;5092983;28;1902;-77
2022/01/20 10:32:48;;;;;;;;;;;;;;;;;;5076516;28;1172;-76
2022/01/20 10:35:14;;;;;;;;;;;;;;;;;;5096957;28;892;-77
2022/01/20 10:37:41;;;;;;;;;;;;;;;;;;5077533;28;1227;-77
2022/01/20 10:40:08;;;;;;;;;;;;;;;;;;5077521;28;1477;-77
2022/01/20 10:42:45;;;;;;;;;;;;;;;;;;5078001;28;1465;-77
2022/01/20 10:45:23;;;;;;;;;;;;;;;;;;5095797;28;852;-76
2022/01/20 10:47:50;;;;;;;;;;;;;;;;;;5095889;28;849;-77
2022/01/20 10:50:17;;;;;;;;;;;;;;;;;;5095731;28;1965;-77
2022/01/20 10:52:45;;;;;;;;;;;;;;;;;;5077333;28;1214;-77
2022/01/20 10:55:28;;;;;;;;;;;;;;;;;;5096450;28;857;-77
2022/01/20 10:57:55;;;;;;;;;;;;;;;;;;5096294;28;853;-77
2022/01/20 11:00:21;;;;;;;;;;;;;;;;;;5096571;28;1133;-77
2022/01/20 11:02:55;;;;;;;;;;;;;;;;;;5077549;28;1243;-77
2022/01/20 11:05:21;;;;;;;;;;;;;;;;;;5078468;28;1529;-77
2022/01/20 11:07:46;;;;;;;;;;;;;;;;;;5077769;28;1199;-78
2022/01/20 11:10:12;;;;;;;;;;;;;;;;;;5078282;28;1890;-78
2022/01/20 11:12:38;;;;;;;;;;;;;;;;;;5077814;28;1293;-78
2022/01/20 11:15:06;;;;;;;;;;;;;;;;;;5077218;28;1112;-78
2022/01/20 11:17:33;;;;;;;;;;;;;;;;;;5077398;28;1146;-78
2022/01/20 11:20:07;;;;;;;;;;;;;;;;;;5095691;28;1108;-78
2022/01/20 11:22:32;;;;;;;;;;;;;;;;;;5077183;28;1475;-78
2022/01/20 11:24:59;;;;;;;;;;;;;;;;;;5094942;28;910;-78
2022/01/20 11:27:33;;;;;;;;;;;;;;;;;;5076652;28;1219;-78
2022/01/20 11:30:01;;;;;;;;;;;;;;;;;;5076232;28;1909;-78
2022/01/20 11:32:27;;;;;;;;;;;;;;;;;;5094192;28;881;-78
2022/01/20 11:35:06;;;;;;;;;;;;;;;;;;5059769;28;1145;-78
2022/01/20 11:37:34;;;;;;;;;;;;;;;;;;5094165;28;1065;-76
2022/01/20 11:40:10;;;;;;;;;;;;;;;;;;5094373;28;750;-78
2022/01/20 11:42:36;;;;;;;;;;;;;;;;;;5075389;28;1215;-78
2022/01/20 11:45:20;;;;;;;;;;;;;;;;;;5059217;28;1313;-77
2022/01/20 11:47:46;;;;;;;;;;;;;;;;;;5076069;28;1247;-78
2022/01/20 11:50:15;;;;;;;;;;;;;;;;;;5075785;28;1902;-77
2022/01/20 11:52:40;;;;;;;;;;;;;;;;;;5094511;28;828;-78
2022/01/20 11:55:10;;;;;;;;;;;;;;;;;;5076520;28;1286;-78
2022/01/20 11:57:35;;;;;;;;;;;;;;;;;;5094548;28;896;-78
2022/01/20 12:00:03;;;;;;;;;;;;;;;;;;5095090;28;983;-78
2022/01/20 12:02:29;;;;;;;;;;;;;;;;;;5076486;28;1140;-78
2022/01/20 12:04:54;;;;;;;;;;;;;;;;;;5094830;28;876;-78
2022/01/20 12:07:24;;;;;;;;;;;;;;;;;;5076118;28;1348;-78
2022/01/20 12:09:49;;;;;;;;;;;;;;;;;;5094209;28;1902;-78
2022/01/20 12:12:24;;;;;;;;;;;;;;;;;;5094225;28;809;-73
2022/01/20 12:14:49;;;;;;;;;;;;;;;;;;5075868;28;1284;-73
2022/01/20 12:17:15;;;;;;;;;;;;;;;;;;5075981;28;1156;-74
2022/01/20 12:20:00;;;;;;;;;;;;;;;;;;5075117;28;1261;-73
2022/01/20 12:22:25;;;;;;;;;;;;;;;;;;5074373;28;1298;-73
2022/01/20 12:24:52;;;;;;;;;;;;;;;;;;5058042;28;1526;-73
2022/01/20 12:27:18;;;;;;;;;;;;;;;;;;5075148;28;1282;-73
2022/01/20 12:29:43;;;;;;;;;;;;;;;;;;5093190;28;848;-77
2022/01/20 12:32:13;;;;;;;;;;;;;;;;;;5093968;28;1945;-77
2022/01/20 12:34:39;;;;;;;;;;;;;;;;;;5094048;28;849;-78
2022/01/20 12:37:04;;;;;;;;;;;;;;;;;;5075906;28;1144;-78
2022/01/20 12:39:30;;;;;;;;;;;;;;;;;;5075606;28;1158;-78
2022/01/20 12:42:04;;;;;;;;;;;;;;;;;;5075674;28;974;-77
2022/01/20 12:45:05;;;;;;;;;;;;;;;;;;5093508;28;852;-77
2022/01/20 12:47:30;;;;;;;;;;;;;;;;;;5094907;28;908;-78
2022/01/20 12:49:56;;;;;;;;;;;;;;;;;;5095023;28;1905;-79
2022/01/20 12:52:22;;;;;;;;;;;;;;;;;;5077201;28;1114;-78
2022/01/20 12:54:48;;;;;;;;;;;;;;;;;;5093864;28;1011;-78
2022/01/20 12:57:13;;;;;;;;;;;;;;;;;;5095048;28;770;-78
2022/01/20 12:59:43;;;;;;;;;;;;;;;;;;5093715;28;1070;-78
2022/01/20 13:02:13;;;;;;;;;;;;;;;;;;5094335;28;861;-78
2022/01/20 13:04:39;;;;;;;;;;;;;;;;;;5093794;28;911;-79
2022/01/20 13:07:05;;;;;;;;;;;;;;;;;;5093893;28;790;-72
2022/01/20 13:09:46;;;;;;;;;;;;;;;;;;5093327;28;881;-73
2022/01/20 13:12:13;;;;;;;;;;;;;;;;;;5094403;28;1866;-73
2022/01/20 13:14:48;;;;;;;;;;;;;;;;;;5093021;28;1159;-72
2022/01/20 13:17:22;;;;;;;;;;;;;;;;;;5093487;28;860;-72
2022/01/20 13:19:48;;;;;;;;;;;;;;;;;;5093221;28;1352;-73
2022/01/20 13:22:27;;;;;;;;;;;;;;;;;;5094176;28;821;-72
2022/01/20 13:24:53;;;;;;;;;;;;;;;;;;5075411;28;1316;-72
2022/01/20 13:27:20;;;;;;;;;;;;;;;;;;5094406;28;751;-74
2022/01/20 13:29:49;;;;;;;;;;;;;;;;;;5093703;28;837;-73
2022/01/20 13:32:14;;;;;;;;;;;;;;;;;;5077059;28;1187;-74
2022/01/20 13:34:50;;;;;;;;;;;;;;;;;;5076647;28;1460;-73
2022/01/20 13:37:16;;;;;;;;;;;;;;;;;;5103553;28;833;-74
2022/01/20 13:39:44;;;;;;;;;;;;;;;;;;5061594;28;1199;-74
2022/01/20 13:45:14;;;;;;;;;;;;;;;;;;5071710;28;1290;-73
2022/01/20 13:47:59;;;;;;;;;;;;;;;;;;5093719;28;845;-73
2022/01/20 13:50:28;;;;;;;;;;;;;;;;;;5094319;28;1939;-79
2022/01/20 13:52:55;;;;;;;;;;;;;;;;;;5094235;28;844;-78
2022/01/20 13:55:25;;;;;;;;;;;;;;;;;;5093738;28;853;-78
2022/01/20 13:57:51;;;;;;;;;;;;;;;;;;5074686;28;1278;-77
2022/01/20 14:00:19;;;;;;;;;;;;;;;;;;5093057;28;841;-78
2022/01/20 14:02:47;;;;;;;;;;;;;;;;;;5093044;28;848;-78
2022/01/20 14:05:13;;;;;;;;;;;;;;;;;;5075796;28;896;-78
2022/01/20 14:07:38;;;;;;;;;;;;;;;;;;5073819;28;1160;-78
2022/01/20 14:10:04;;;;;;;;;;;;;;;;;;5075129;28;1961;-78
2022/01/20 14:12:29;;;;;;;;;;;;;;;;;;5093213;28;809;-78
2022/01/20 14:14:55;;;;;;;;;;;;;;;;;;5074851;28;892;-78
2022/01/20 14:17:21;;;;;;;;;;;;;;;;;;5092492;28;1038;-77
2022/01/20 14:19:53;;;;;;;;;;;;;;;;;;5074277;28;1207;-77
2022/01/20 14:22:20;;;;;;;;;;;;;;;;;;5059314;28;1496;-78
2022/01/20 14:24:45;;;;;;;;;;;;;;;;;;5092557;28;922;-77
2022/01/20 14:27:14;;;;;;;;;;;;;;;;;;5058490;28;1227;-77
2022/01/20 14:29:42;;;;;;;;;;;;;;;;;;5076114;28;850;-77
2022/01/20 14:32:07;;;;;;;;;;;;;;;;;;5075561;28;1979;-76
2022/01/20 14:34:33;;;;;;;;;;;;;;;;;;5044099;28;1200;-77
2022/01/20 14:36:58;;;;;;;;;;;;;;;;;;5067190;28;1193;-78
2022/01/20 14:39:24;;;;;;;;;;;;;;;;;;5063688;28;1098;-79
2022/01/20 14:41:49;;;;;;;;;;;;;;;;;;5052508;28;1153;-78
2022/01/20 14:44:14;;;;;;;;;;;;;;;;;;5057014;28;1141;-79
2022/01/20 14:46:40;;;;;;;;;;;;;;;;;;5057359;28;1184;-81
2022/01/20 14:49:05;;;;;;;;;;;;;;;;;;5053965;28;1090;-80
2022/01/20 14:51:31;;;;;;;;;;;;;;;;;;5053793;28;1902;-79
2022/01/20 14:53:56;;;;;;;;;;;;;;;;;;5058558;28;1129;-79
2022/01/20 14:56:22;;;;;;;;;;;;;;;;;;5066435;28;1433;-80
2022/01/20 14:58:47;;;;;;;;;;;;;;;;;;5052876;28;1259;-79
2022/01/20 15:01:12;;;;;;;;;;;;;;;;;;5053398;28;1333;-79
2022/01/20 15:03:38;;;;;;;;;;;;;;;;;;5052932;28;1387;-79
2022/01/20 15:06:03;;;;;;;;;;;;;;;;;;5053041;28;1345;-79
2022/01/20 15:08:28;;;;;;;;;;;;;;;;;;5035887;28;1254;-78
2022/01/20 15:10:54;;;;;;;;;;;;;;;;;;5064752;28;1909;-79
2022/01/20 15:13:19;;;;;;;;;;;;;;;;;;5052961;28;1229;-79
2022/01/20 15:15:44;;;;;;;;;;;;;;;;;;5050217;28;1233;-80
2022/01/20 15:18:10;;;;;;;;;;;;;;;;;;5058711;28;1149;-80
2022/01/20 15:20:35;;;;;;;;;;;;;;;;;;5048693;28;1388;-80
2022/01/20 15:23:00;;;;;;;;;;;;;;;;;;5059930;28;1176;-79
2022/01/20 15:25:26;;;;;;;;;;;;;;;;;;5076981;28;1231;-81
2022/01/20 15:27:53;;;;;;;;;;;;;;;;;;5076197;28;1294;-80
2022/01/20 15:30:19;;;;;;;;;;;;;;;;;;5060497;28;1918;-80
2022/01/20 15:32:44;;;;;;;;;;;;;;;;;;5094720;28;1140;-79
2022/01/20 15:35:10;;;;;;;;;;;;;;;;;;5094729;28;1144;-79
2022/01/20 15:37:36;;;;;;;;;;;;;;;;;;5076379;28;1240;-79
2022/01/20 15:40:03;;;;;;;;;;;;;;;;;;5094658;28;1121;-79
2022/01/20 15:42:28;;;;;;;;;;;;;;;;;;5076175;28;1133;-80
2022/01/20 15:44:53;;;;;;;;;;;;;;;;;;5076032;28;1231;-78
2022/01/20 15:47:19;;;;;;;;;;;;;;;;;;5095209;28;1347;-80
2022/01/20 15:49:45;;;;;;;;;;;;;;;;;;5057077;28;1215;-82
2022/01/20 15:52:10;;;;;;;;;;;;;;;;;;5076573;28;1906;-80
2022/01/20 15:54:35;;;;;;;;;;;;;;;;;;5057515;28;1338;-81
2022/01/20 15:57:00;;;;;;;;;;;;;;;;;;5060364;28;1227;-79
2022/01/20 15:59:26;;;;;;;;;;;;;;;;;;5095407;28;1160;-82
2022/01/20 16:01:51;;;;;;;;;;;;;;;;;;5098547;28;1318;-74
2022/01/20 16:04:18;;;;;;;;;;;;;;;;;;5088039;28;1145;-74
2022/01/20 16:06:46;;;;;;;;;;;;;;;;;;5100435;28;1149;-73
2022/01/20 16:09:11;;;;;;;;;;;;;;;;;;5100502;28;1282;-73
2022/01/20 16:11:36;;;;;;;;;;;;;;;;;;5081791;28;1949;-74
2022/01/20 16:14:02;;;;;;;;;;;;;;;;;;5059759;28;1322;-75
2022/01/20 16:16:27;;;;;;;;;;;;;;;;;;5064801;28;1286;-73
2022/01/20 16:18:53;;;;;;;;;;;;;;;;;;5092790;28;1152;-75
2022/01/20 16:21:19;;;;;;;;;;;;;;;;;;5061692;28;1200;-73
2022/01/20 16:23:45;;;;;;;;;;;;;;;;;;5075281;28;1306;-75
2022/01/20 16:26:11;;;;;;;;;;;;;;;;;;5075811;28;1122;-74
2022/01/20 16:28:37;;;;;;;;;;;;;;;;;;5076262;28;1240;-74
2022/01/20 16:31:02;;;;;;;;;;;;;;;;;;5074891;28;1886;-72
2022/01/20 16:33:27;;;;;;;;;;;;;;;;;;5058319;28;1212;-73
2022/01/20 16:35:53;;;;;;;;;;;;;;;;;;5056864;28;1336;-72
2022/01/20 16:38:19;;;;;;;;;;;;;;;;;;5070325;28;1277;-73
2022/01/20 16:40:44;;;;;;;;;;;;;;;;;;5067407;28;1169;-73
2022/01/20 16:43:09;;;;;;;;;;;;;;;;;;5069141;28;1272;-71
2022/01/20 16:45:35;;;;;;;;;;;;;;;;;;5086769;28;1102;-73
2022/01/20 16:48:00;;;;;;;;;;;;;;;;;;5073917;28;1448;-74
2022/01/20 16:50:26;;;;;;;;;;;;;;;;;;5093973;28;1918;-74
2022/01/20 16:52:51;;;;;;;;;;;;;;;;;;5091550;28;1062;-72
2022/01/20 16:55:17;;;;;;;;;;;;;;;;;;5090794;28;1168;-73
2022/01/20 16:57:42;;;;;;;;;;;;;;;;;;5056652;28;1299;-73
2022/01/20 17:00:09;;;;;;;;;;;;;;;;;;5074301;28;1125;-72
2022/01/20 17:03:02;;;;;;;;;;;;;;;;;;5085080;28;1185;-73
2022/01/20 17:05:28;;;;;;;;;;;;;;;;;;5043849;28;1242;-82
2022/01/20 17:07:54;;;;;;;;;;;;;;;;;;5077192;28;1153;-83
2022/01/20 17:10:19;;;;;;;;;;;;;;;;;;5058602;28;1972;-82
2022/01/20 17:12:44;;;;;;;;;;;;;;;;;;5057495;28;1287;-82
2022/01/20 17:15:10;;;;;;;;;;;;;;;;;;5057397;28;1274;-81
2022/01/20 17:17:35;;;;;;;;;;;;;;;;;;5058974;28;1196;-81
2022/01/20 17:20:00;;;;;;;;;;;;;;;;;;5079589;28;1234;-80
2022/01/20 17:22:26;;;;;;;;;;;;;;;;;;5076817;28;1266;-80
2022/01/20 17:24:52;;;;;;;;;;;;;;;;;;5095577;28;1149;-82
2022/01/20 17:27:17;;;;;;;;;;;;;;;;;;5095057;28;1148;-80
2022/01/20 17:29:42;;;;;;;;;;;;;;;;;;5094103;28;1216;-81
2022/01/20 17:32:08;;;;;;;;;;;;;;;;;;5075833;28;1972;-81
2022/01/20 17:34:33;;;;;;;;;;;;;;;;;;5093807;28;1177;-82
2022/01/20 17:36:58;;;;;;;;;;;;;;;;;;5094457;28;1273;-80
2022/01/20 17:39:25;;;;;;;;;;;;;;;;;;5092697;28;1211;-80
2022/01/20 17:41:50;;;;;;;;;;;;;;;;;;5090997;28;1152;-80
2022/01/20 17:44:16;;;;;;;;;;;;;;;;;;5091971;28;1204;-80
2022/01/20 17:46:42;;;;;;;;;;;;;;;;;;5073486;28;1383;-80
2022/01/20 17:49:07;;;;;;;;;;;;;;;;;;5072496;28;1384;-80
2022/01/20 17:51:34;;;;;;;;;;;;;;;;;;5073972;28;1958;-80
2022/01/20 17:54:00;;;;;;;;;;;;;;;;;;5055970;28;1412;-80
2022/01/20 17:56:25;;;;;;;;;;;;;;;;;;5091246;28;1211;-80
2022/01/20 17:58:51;;;;;;;;;;;;;;;;;;5092146;28;1140;-80
2022/01/20 18:01:17;;;;;;;;;;;;;;;;;;5074199;28;1366;-80
2022/01/20 18:03:42;;;;;;;;;;;;;;;;;;5057761;28;1254;-80
2022/01/20 18:06:12;;;;;;;;;;;;;;;;;;5073741;28;1247;-80
2022/01/20 18:08:37;;;;;;;;;;;;;;;;;;5073937;28;1174;-80
2022/01/20 18:11:02;;;;;;;;;;;;;;;;;;5091500;28;1973;-80
2022/01/20 18:13:28;;;;;;;;;;;;;;;;;;5091322;28;1283;-79
2022/01/20 18:15:54;;;;;;;;;;;;;;;;;;5053933;28;1269;-81
2022/01/20 18:18:19;;;;;;;;;;;;;;;;;;5073611;28;1274;-80
2022/01/20 18:20:45;;;;;;;;;;;;;;;;;;5090776;28;1223;-80